createdAt,value
2023-03-31T00:00:58.329Z,4.90
2023-03-31T00:03:25.618Z,4.63
2023-03-31T00:06:00.856Z,4.50
2023-03-31T00:08:35.848Z,4.60
2023-03-31T00:11:07.476Z,5.07
2023-03-31T00:13:36.271Z,4.50
2023-03-31T00:16:09.569Z,4.40
2023-03-31T00:18:37.219Z,4.88
2023-03-31T00:21:09.005Z,4.05
2023-03-31T00:23:36.470Z,4.40
2023-03-31T00:26:03.922Z,4.07
2023-03-31T00:28:31.354Z,5.00
2023-03-31T00:31:03.322Z,4.35
2023-03-31T00:33:30.509Z,3.95
2023-03-31T00:36:02.556Z,4.15
2023-03-31T00:38:33.038Z,4.03
2023-03-31T00:41:01.479Z,3.83
2023-03-31T00:43:37.097Z,3.80
2023-03-31T00:46:15.755Z,3.33
2023-03-31T00:48:58.339Z,3.90
2023-03-31T00:51:32.322Z,3.92
2023-03-31T00:54:06.518Z,4.00
2023-03-31T00:56:37.972Z,3.42
2023-03-31T00:59:09.141Z,4.25
2023-03-31T01:01:39.751Z,4.15
2023-03-31T01:04:10.180Z,4.25
2023-03-31T01:06:50.457Z,3.95
2023-03-31T01:09:17.668Z,3.90
2023-03-31T01:11:46.980Z,3.85
2023-03-31T01:14:14.851Z,4.05
2023-03-31T01:16:44.664Z,4.15
2023-03-31T01:19:24.010Z,3.58
2023-03-31T01:22:03.068Z,4.65
2023-03-31T01:24:52.181Z,3.83
2023-03-31T01:27:42.704Z,4.55
2023-03-31T01:30:34.610Z,3.35
2023-03-31T01:33:47.150Z,3.65
2023-03-31T01:36:51.849Z,4.30
2023-03-31T01:39:44.190Z,3.40
2023-03-31T01:42:23.661Z,3.95
2023-03-31T01:45:18.586Z,3.83
2023-03-31T01:47:59.233Z,3.67
2023-03-31T01:50:53.981Z,3.92
2023-03-31T01:56:02.867Z,4.03
2023-03-31T01:58:39.914Z,3.65
2023-03-31T02:01:21.518Z,3.35
2023-03-31T02:04:15.031Z,3.50
2023-03-31T02:06:50.237Z,2.90
2023-03-31T02:09:22.259Z,3.47
2023-03-31T02:11:52.213Z,3.08
2023-03-31T02:14:24.283Z,2.83
2023-03-31T02:16:58.721Z,3.45
2023-03-31T02:19:31.916Z,3.08
2023-03-31T02:22:00.027Z,3.10
2023-03-31T02:24:29.630Z,3.00
2023-03-31T02:27:28.659Z,2.60
2023-03-31T02:29:56.523Z,2.95
2023-03-31T02:32:36.362Z,3.10
2023-03-31T02:35:04.988Z,3.20
2023-03-31T02:37:33.588Z,3.17
2023-03-31T02:40:06.634Z,2.80
2023-03-31T02:42:34.081Z,2.88
2023-03-31T02:45:03.962Z,2.90
2023-03-31T02:47:31.751Z,2.45
2023-03-31T02:50:02.057Z,2.45
2023-03-31T02:52:41.100Z,2.97
2023-03-31T02:55:18.276Z,2.70
2023-03-31T02:57:57.489Z,2.83
2023-03-31T03:01:03.643Z,2.88
2023-03-31T03:04:00.993Z,2.95
2023-03-31T03:06:37.908Z,3.58
2023-03-31T03:09:45.000Z,3.10
2023-03-31T03:12:24.124Z,2.70
2023-03-31T03:15:13.175Z,3.13
2023-03-31T03:17:47.781Z,3.35
2023-03-31T03:20:16.554Z,3.00
2023-03-31T03:22:43.769Z,2.88
2023-03-31T03:25:13.744Z,3.00
2023-03-31T03:27:41.496Z,2.65
2023-03-31T03:30:11.526Z,2.95
2023-03-31T03:32:39.003Z,2.67
2023-03-31T03:35:07.260Z,2.45
2023-03-31T03:37:34.869Z,2.92
2023-03-31T03:40:02.237Z,2.60
2023-03-31T03:42:29.726Z,2.85
2023-03-31T03:44:57.208Z,2.75
2023-03-31T03:47:25.091Z,3.33
2023-03-31T03:49:52.624Z,2.60
2023-03-31T03:52:20.852Z,2.58
2023-03-31T03:54:48.093Z,2.65
2023-03-31T03:57:16.067Z,2.30
2023-03-31T03:59:43.323Z,2.65
2023-03-31T04:02:11.073Z,3.35
2023-03-31T04:04:38.351Z,2.92
2023-03-31T04:07:06.554Z,2.20
2023-03-31T04:09:33.919Z,2.70
2023-03-31T04:12:02.346Z,3.08
2023-03-31T04:14:29.932Z,2.75
2023-03-31T04:16:59.158Z,3.05
2023-03-31T04:19:27.709Z,2.58
2023-03-31T04:22:03.772Z,3.30
2023-03-31T04:24:33.531Z,2.85
2023-03-31T04:27:03.546Z,3.05
2023-03-31T04:29:34.151Z,3.08
2023-03-31T04:32:02.102Z,2.35
2023-03-31T04:34:38.931Z,2.70
2023-03-31T04:37:06.606Z,3.20
2023-03-31T04:39:33.872Z,2.80
2023-03-31T04:42:01.785Z,2.85
2023-03-31T04:44:30.058Z,3.63
2023-03-31T04:46:59.071Z,3.40
2023-03-31T04:49:26.645Z,2.80
2023-03-31T04:51:53.853Z,2.40
2023-03-31T04:54:21.482Z,2.08
2023-03-31T04:56:49.631Z,2.50
2023-03-31T04:59:16.948Z,2.63
2023-03-31T05:01:45.834Z,2.95
2023-03-31T05:04:13.551Z,2.28
2023-03-31T05:06:41.406Z,2.00
2023-03-31T05:09:10.110Z,2.50
2023-03-31T05:11:38.597Z,2.05
2023-03-31T05:14:06.446Z,2.70
2023-03-31T05:16:35.038Z,2.50
2023-03-31T05:19:02.350Z,2.45
2023-03-31T05:21:31.229Z,2.63
2023-03-31T05:23:58.851Z,2.90
2023-03-31T05:26:26.626Z,3.55
2023-03-31T05:28:55.020Z,2.97
2023-03-31T05:31:23.312Z,3.80
2023-03-31T05:33:51.023Z,2.25
2023-03-31T05:36:18.341Z,3.00
2023-03-31T05:38:46.377Z,2.95
2023-03-31T05:41:13.993Z,2.00
2023-03-31T05:43:41.393Z,2.28
2023-03-31T05:46:08.932Z,4.35
2023-03-31T05:48:37.693Z,4.28
2023-03-31T05:51:05.461Z,2.78
2023-03-31T05:53:34.203Z,2.92
2023-03-31T05:56:03.964Z,3.22
2023-03-31T05:58:34.011Z,3.55
2023-03-31T06:01:10.729Z,3.65
2023-03-31T06:03:44.615Z,3.45
2023-03-31T06:06:16.972Z,3.67
2023-03-31T06:08:45.984Z,3.10
2023-03-31T06:11:19.799Z,3.60
2023-03-31T06:13:47.795Z,3.28
2023-03-31T06:16:17.274Z,3.38
2023-03-31T06:18:46.692Z,3.80
2023-03-31T06:21:17.904Z,2.75
2023-03-31T06:23:46.416Z,3.47
2023-03-31T06:26:16.772Z,3.97
2023-03-31T06:28:45.962Z,3.03
2023-03-31T06:31:15.834Z,3.38
2023-03-31T06:33:45.042Z,3.45
2023-03-31T06:36:15.455Z,3.42
2023-03-31T06:38:43.906Z,2.55
2023-03-31T06:41:14.867Z,3.25
2023-03-31T06:43:43.299Z,3.42
2023-03-31T06:46:12.050Z,3.20
2023-03-31T06:48:40.590Z,2.97
2023-03-31T06:51:09.199Z,3.10
2023-03-31T06:53:37.726Z,2.92
2023-03-31T06:56:07.266Z,3.45
2023-03-31T06:58:35.734Z,3.10
2023-03-31T07:01:05.785Z,2.97
2023-03-31T07:03:34.874Z,3.25
2023-03-31T07:06:06.148Z,2.83
2023-03-31T07:08:34.466Z,3.03
2023-03-31T07:11:02.664Z,2.72
2023-03-31T07:13:31.449Z,2.65
2023-03-31T07:15:59.585Z,2.55
2023-03-31T07:18:34.786Z,3.17
2023-03-31T07:21:10.078Z,2.65
2023-03-31T07:23:38.705Z,3.10
2023-03-31T07:26:07.296Z,3.10
2023-03-31T07:28:35.937Z,3.05
2023-03-31T07:31:04.185Z,4.05
2023-03-31T07:33:33.783Z,2.55
2023-03-31T07:36:12.756Z,3.10
2023-03-31T07:38:47.126Z,2.30
2023-03-31T07:41:18.530Z,3.20
2023-03-31T07:43:50.223Z,2.63
2023-03-31T07:46:27.146Z,2.78
2023-03-31T07:48:58.097Z,2.75
2023-03-31T07:51:29.938Z,2.42
2023-03-31T07:53:58.313Z,3.00
2023-03-31T07:56:26.534Z,2.53
2023-03-31T07:58:57.732Z,2.55
2023-03-31T08:01:27.058Z,2.53
2023-03-31T08:03:56.305Z,2.40
2023-03-31T08:06:26.558Z,2.83
2023-03-31T08:08:54.832Z,3.25
2023-03-31T08:11:22.858Z,2.75
2023-03-31T08:13:52.110Z,2.60
2023-03-31T08:16:20.650Z,2.72
2023-03-31T08:18:49.436Z,2.80
2023-03-31T08:21:17.537Z,2.55
2023-03-31T08:23:45.972Z,2.53
2023-03-31T08:26:20.613Z,2.28
2023-03-31T08:28:49.718Z,2.90
2023-03-31T08:31:23.247Z,2.78
2023-03-31T08:33:52.947Z,2.53
2023-03-31T08:36:20.720Z,2.78
2023-03-31T08:38:50.114Z,2.42
2023-03-31T08:41:38.429Z,2.80
2023-03-31T08:44:31.783Z,3.15
2023-03-31T08:47:03.077Z,2.42
2023-03-31T08:49:42.377Z,2.50
2023-03-31T08:52:17.176Z,2.83
2023-03-31T08:54:52.150Z,2.83
2023-03-31T08:57:26.997Z,3.05
2023-03-31T08:59:58.576Z,2.88
2023-03-31T09:02:34.059Z,3.30
2023-03-31T09:05:43.212Z,2.85
2023-03-31T09:08:36.026Z,2.92
2023-03-31T09:11:14.632Z,3.17
2023-03-31T09:13:45.476Z,2.60
2023-03-31T09:16:20.714Z,3.08
2023-03-31T09:18:48.371Z,3.50
2023-03-31T09:21:49.668Z,2.95
2023-03-31T09:24:23.889Z,2.40
2023-03-31T09:27:00.218Z,3.15
2023-03-31T09:29:51.776Z,3.08
2023-03-31T09:32:24.338Z,2.97
2023-03-31T09:35:02.143Z,2.47
2023-03-31T09:37:33.850Z,3.47
2023-03-31T09:40:08.343Z,2.63
2023-03-31T09:42:37.834Z,3.03
2023-03-31T09:45:07.372Z,2.45
2023-03-31T09:47:57.975Z,2.65
2023-03-31T09:50:28.129Z,2.63
2023-03-31T09:53:01.264Z,3.13
2023-03-31T09:55:46.409Z,2.85
2023-03-31T09:58:17.408Z,2.60
2023-03-31T10:01:15.754Z,3.08
2023-03-31T10:03:54.360Z,3.00
2023-03-31T10:06:25.623Z,2.83
2023-03-31T10:09:00.311Z,3.65
2023-03-31T10:11:27.642Z,2.67
2023-03-31T10:14:03.959Z,2.97
2023-03-31T10:16:51.663Z,3.17
2023-03-31T10:19:27.856Z,2.63
2023-03-31T10:22:06.936Z,2.88
2023-03-31T10:24:41.505Z,2.53
2023-03-31T10:27:30.671Z,2.75
2023-03-31T10:30:01.646Z,2.20
2023-03-31T10:32:32.120Z,2.63
2023-03-31T10:35:06.562Z,2.72
2023-03-31T10:37:37.461Z,2.88
2023-03-31T10:40:24.425Z,3.05
2023-03-31T10:43:25.593Z,2.72
2023-03-31T10:45:57.253Z,2.63
2023-03-31T10:48:32.652Z,2.90
2023-03-31T10:51:02.422Z,2.80
2023-03-31T10:53:30.684Z,2.58
2023-03-31T10:56:05.530Z,2.95
2023-03-31T10:59:04.530Z,2.70
2023-03-31T11:01:48.319Z,2.22
2023-03-31T11:06:58.192Z,1.77
2023-03-31T11:09:36.014Z,2.20
2023-03-31T11:12:34.060Z,2.33
2023-03-31T11:15:27.584Z,2.13
2023-03-31T11:18:16.422Z,2.60
2023-03-31T11:21:08.986Z,2.08
2023-03-31T11:23:44.924Z,1.80
2023-03-31T11:26:23.116Z,2.03
2023-03-31T11:29:26.572Z,2.45
2023-03-31T11:32:21.132Z,2.58
2023-03-31T11:35:16.815Z,2.20
2023-03-31T11:38:02.098Z,2.65
2023-03-31T11:41:15.781Z,2.78
2023-03-31T11:44:03.531Z,2.15
2023-03-31T11:46:55.548Z,2.33
2023-03-31T11:49:31.417Z,2.17
2023-03-31T11:52:33.566Z,3.08
2023-03-31T11:55:16.338Z,2.17
2023-03-31T12:00:23.824Z,2.45
2023-03-31T12:03:39.569Z,2.47
2023-03-31T12:06:17.813Z,2.53
2023-03-31T12:08:51.740Z,1.98
2023-03-31T12:11:47.645Z,2.80
2023-03-31T12:14:31.559Z,3.08
2023-03-31T12:17:11.931Z,2.72
2023-03-31T12:19:52.057Z,2.40
2023-03-31T12:22:19.847Z,2.45
2023-03-31T12:24:47.980Z,2.67
2023-03-31T12:27:26.299Z,2.65
2023-03-31T12:30:11.365Z,1.95
2023-03-31T12:32:48.213Z,2.13
2023-03-31T12:35:19.206Z,2.88
2023-03-31T12:38:23.673Z,2.78
2023-03-31T12:41:17.245Z,2.72
2023-03-31T12:43:58.073Z,2.20
2023-03-31T12:46:54.096Z,2.25
2023-03-31T12:49:37.499Z,1.95
2023-03-31T12:52:11.113Z,2.45
2023-03-31T12:54:41.616Z,1.85
2023-03-31T12:57:10.664Z,2.20
2023-03-31T12:59:46.711Z,2.67
2023-03-31T13:02:18.064Z,2.85
2023-03-31T13:04:46.621Z,2.47
2023-03-31T13:07:27.308Z,2.22
2023-03-31T13:10:22.097Z,3.10
2023-03-31T13:13:02.514Z,2.45
2023-03-31T13:15:31.372Z,1.92
2023-03-31T13:18:07.601Z,2.03
2023-03-31T13:20:43.289Z,3.20
2023-03-31T13:23:23.413Z,1.98
2023-03-31T13:25:59.450Z,2.30
2023-03-31T13:28:29.051Z,2.40
2023-03-31T13:31:03.371Z,2.70
2023-03-31T13:34:03.840Z,2.00
2023-03-31T13:36:35.208Z,2.63
2023-03-31T13:39:34.343Z,2.80
2023-03-31T13:42:23.795Z,3.20
2023-03-31T13:45:25.325Z,2.75
2023-03-31T13:48:11.698Z,3.35
2023-03-31T13:51:17.351Z,3.58
2023-03-31T13:54:03.563Z,2.75
2023-03-31T13:56:55.263Z,4.03
2023-03-31T13:59:56.545Z,3.92
2023-03-31T14:02:31.443Z,4.00
2023-03-31T14:05:19.937Z,3.75
2023-03-31T14:07:55.470Z,3.42
2023-03-31T14:10:44.925Z,3.72
2023-03-31T14:13:19.973Z,3.25
2023-03-31T14:15:59.703Z,3.28
2023-03-31T14:18:31.690Z,4.28
2023-03-31T14:21:36.262Z,3.43
2023-03-31T14:24:37.622Z,3.22
2023-03-31T14:27:05.155Z,2.78
2023-03-31T14:29:48.053Z,3.58
2023-03-31T14:32:39.019Z,3.50
2023-03-31T14:35:14.888Z,3.33
2023-03-31T14:37:45.326Z,3.65
2023-03-31T14:40:18.460Z,3.10
2023-03-31T14:42:51.015Z,3.60
2023-03-31T14:45:26.583Z,2.80
2023-03-31T14:48:15.323Z,4.20
2023-03-31T14:50:45.473Z,3.08
2023-03-31T14:53:18.283Z,4.20
2023-03-31T14:55:58.587Z,3.88
2023-03-31T14:58:35.515Z,4.22
2023-03-31T15:01:07.365Z,5.10
2023-03-31T15:03:42.478Z,4.32
2023-03-31T15:06:12.140Z,4.50
2023-03-31T15:08:41.001Z,4.43
2023-03-31T15:11:19.170Z,4.25
2023-03-31T15:14:04.332Z,3.65
2023-03-31T15:16:45.602Z,4.97
2023-03-31T15:19:25.453Z,4.28
2023-03-31T15:22:07.495Z,4.18
2023-03-31T15:24:35.584Z,5.13
2023-03-31T15:27:20.592Z,5.05
2023-03-31T15:29:55.577Z,4.07
2023-03-31T15:32:30.122Z,5.40
2023-03-31T15:35:11.062Z,5.10
2023-03-31T15:37:48.109Z,4.85
2023-03-31T15:40:28.371Z,5.22
2023-03-31T15:43:06.984Z,5.05
2023-03-31T15:46:19.593Z,4.97
2023-03-31T15:48:56.989Z,4.85
2023-03-31T15:51:24.951Z,5.75
2023-03-31T15:53:54.824Z,5.47
2023-03-31T15:56:34.976Z,5.70
2023-03-31T15:59:05.215Z,8.05
2023-03-31T16:01:42.494Z,6.05
2023-03-31T16:04:16.218Z,6.43
2023-03-31T16:06:47.037Z,5.97
2023-03-31T16:09:29.418Z,6.15
2023-03-31T16:12:11.560Z,7.00
2023-03-31T16:14:48.822Z,6.03
2023-03-31T16:17:26.742Z,5.57
2023-03-31T16:20:08.524Z,6.32
2023-03-31T16:22:42.140Z,6.18
2023-03-31T16:25:13.002Z,6.38
2023-03-31T16:27:44.276Z,6.28
2023-03-31T16:30:16.635Z,6.15
2023-03-31T16:33:02.309Z,5.57
2023-03-31T16:35:53.224Z,6.35
2023-03-31T16:38:22.436Z,5.72
2023-03-31T16:40:53.566Z,5.38
2023-03-31T16:43:24.091Z,5.82
2023-03-31T16:45:52.545Z,6.40
2023-03-31T16:48:21.933Z,5.85
2023-03-31T16:50:51.959Z,6.70
2023-03-31T16:53:22.742Z,6.88
2023-03-31T16:55:50.429Z,7.88
2023-03-31T16:58:18.303Z,5.45
2023-03-31T17:00:46.458Z,6.93
2023-03-31T17:03:15.053Z,6.63
2023-03-31T17:05:48.256Z,6.82
2023-03-31T17:08:16.529Z,6.80
2023-03-31T17:10:52.780Z,7.60
2023-03-31T17:13:20.824Z,7.03
2023-03-31T17:15:49.613Z,7.18
2023-03-31T17:18:18.151Z,6.75
2023-03-31T17:20:45.904Z,7.32
2023-03-31T17:23:14.110Z,8.02
2023-03-31T17:25:48.189Z,7.15
2023-03-31T17:28:15.580Z,6.43
2023-03-31T17:30:44.650Z,8.27
2023-03-31T17:33:11.765Z,6.45
2023-03-31T17:35:38.934Z,7.75
2023-03-31T17:38:06.091Z,7.72
2023-03-31T17:40:34.772Z,7.90
2023-03-31T17:43:03.103Z,7.57
2023-03-31T17:45:31.220Z,7.68
2023-03-31T17:47:59.867Z,8.55
2023-03-31T17:50:27.488Z,8.07
2023-03-31T17:52:55.891Z,8.38
2023-03-31T17:55:23.793Z,8.32
2023-03-31T17:57:53.725Z,8.20
2023-03-31T18:00:21.226Z,8.50
2023-03-31T18:02:48.584Z,8.05
2023-03-31T18:05:18.178Z,8.75
2023-03-31T18:07:45.771Z,8.18
2023-03-31T18:10:13.252Z,8.98
2023-03-31T18:12:41.510Z,9.65
2023-03-31T18:15:10.596Z,7.75
2023-03-31T18:17:37.968Z,7.25
2023-03-31T18:20:05.872Z,9.00
2023-03-31T18:22:33.166Z,8.02
2023-03-31T18:25:00.707Z,6.95
2023-03-31T18:27:27.869Z,7.47
2023-03-31T18:29:55.774Z,8.15
2023-03-31T18:32:23.053Z,7.05
2023-03-31T18:34:50.200Z,6.97
2023-03-31T18:37:17.776Z,8.15
2023-03-31T18:39:45.183Z,7.95
2023-03-31T18:42:12.755Z,7.78
2023-03-31T18:44:40.002Z,8.63
2023-03-31T18:47:07.397Z,8.55
2023-03-31T18:49:34.962Z,7.50
2023-03-31T18:52:04.613Z,8.35
2023-03-31T18:54:32.438Z,7.50
2023-03-31T18:57:00.245Z,6.80
2023-03-31T18:59:27.666Z,7.72
2023-03-31T19:01:55.104Z,8.50
2023-03-31T19:04:22.177Z,7.53
2023-03-31T19:06:49.799Z,8.23
2023-03-31T19:09:17.667Z,7.63
2023-03-31T19:11:44.864Z,7.68
2023-03-31T19:14:12.581Z,7.93
2023-03-31T19:16:42.756Z,7.60
2023-03-31T19:19:12.980Z,8.45
2023-03-31T19:21:41.902Z,8.05
2023-03-31T19:24:09.734Z,7.75
2023-03-31T19:26:37.561Z,7.43
2023-03-31T19:29:05.539Z,7.22
2023-03-31T19:31:38.550Z,8.68
2023-03-31T19:34:08.125Z,9.05
2023-03-31T19:36:35.657Z,8.73
2023-03-31T19:39:04.063Z,8.80
2023-03-31T19:41:31.734Z,9.30
2023-03-31T19:43:59.217Z,8.15
2023-03-31T19:46:26.724Z,7.80
2023-03-31T19:48:54.109Z,8.23
2023-03-31T19:51:21.401Z,8.88
2023-03-31T19:53:48.746Z,8.57
2023-03-31T19:56:18.012Z,7.30
2023-03-31T19:58:45.908Z,8.05
2023-03-31T20:01:21.414Z,8.27
2023-03-31T20:03:53.203Z,8.63
2023-03-31T20:06:26.212Z,8.30
2023-03-31T20:08:58.872Z,7.47
2023-03-31T20:13:56.329Z,6.75
2023-03-31T20:16:25.881Z,8.50
2023-03-31T20:18:58.872Z,7.60
2023-03-31T20:21:29.556Z,8.20
2023-03-31T20:23:57.491Z,8.00
2023-03-31T20:26:32.663Z,7.97
2023-03-31T20:29:04.590Z,8.68
2023-03-31T20:31:36.859Z,7.63
2023-03-31T20:34:07.033Z,8.77
2023-03-31T20:36:34.578Z,8.80
2023-03-31T20:39:04.412Z,8.30
2023-03-31T20:41:32.250Z,8.80
2023-03-31T20:44:00.162Z,8.65
2023-03-31T20:46:27.839Z,9.63
2023-03-31T20:48:57.678Z,8.82
2023-03-31T20:51:28.610Z,9.35
2023-03-31T20:53:57.708Z,8.30
2023-03-31T20:56:27.724Z,8.45
2023-03-31T20:58:57.890Z,8.68
2023-03-31T21:01:27.833Z,8.55
2023-03-31T21:03:55.227Z,8.95
2023-03-31T21:06:22.467Z,8.27
2023-03-31T21:08:54.091Z,9.40
2023-03-31T21:11:23.017Z,9.02
2023-03-31T21:13:51.147Z,8.98
2023-03-31T21:16:18.318Z,8.27
2023-03-31T21:18:45.723Z,8.60
2023-03-31T21:21:15.846Z,8.50
2023-03-31T21:23:43.130Z,10.00
2023-03-31T21:26:14.769Z,8.90
2023-03-31T21:28:42.019Z,8.95
2023-03-31T21:31:12.346Z,9.43
2023-03-31T21:33:41.933Z,9.30
2023-03-31T21:36:12.408Z,9.95
2023-03-31T21:38:40.920Z,9.77
2023-03-31T21:41:10.957Z,10.32
2023-03-31T21:43:38.662Z,10.07
2023-03-31T21:46:07.016Z,9.90
2023-03-31T21:48:35.814Z,10.18
2023-03-31T21:51:03.984Z,9.48
2023-03-31T21:53:31.670Z,8.13
2023-03-31T21:55:59.628Z,10.13
2023-03-31T21:58:29.209Z,9.82
2023-03-31T22:00:57.767Z,9.30
2023-03-31T22:03:29.320Z,11.10
2023-03-31T22:05:58.531Z,9.60
2023-03-31T22:08:27.440Z,7.80
2023-03-31T22:10:56.155Z,8.77
2023-03-31T22:13:25.260Z,8.45
2023-03-31T22:15:56.572Z,10.65
2023-03-31T22:18:23.777Z,11.50
2023-03-31T22:20:51.783Z,9.98
2023-03-31T22:23:21.043Z,9.68
2023-03-31T22:25:48.670Z,11.60
2023-03-31T22:28:17.261Z,10.48
2023-03-31T22:30:45.119Z,10.43
2023-03-31T22:33:12.888Z,10.13
2023-03-31T22:35:40.567Z,9.98
2023-03-31T22:38:08.746Z,10.57
2023-03-31T22:40:36.953Z,10.98
2023-03-31T22:43:05.081Z,11.57
2023-03-31T22:45:32.733Z,12.65
2023-03-31T22:48:00.052Z,10.15
2023-03-31T22:50:27.495Z,13.55
2023-03-31T22:52:54.966Z,12.68
2023-03-31T22:55:23.259Z,10.15
2023-03-31T22:57:51.047Z,11.05
2023-03-31T23:00:18.826Z,8.88
2023-03-31T23:02:46.485Z,11.55
2023-03-31T23:05:13.829Z,10.63
2023-03-31T23:07:41.925Z,13.80
2023-03-31T23:10:09.956Z,9.13
2023-03-31T23:12:37.497Z,13.43
2023-03-31T23:15:05.195Z,10.35
2023-03-31T23:17:33.178Z,12.27
2023-03-31T23:20:00.790Z,13.73
2023-03-31T23:22:28.147Z,10.95
2023-03-31T23:24:55.581Z,13.05
2023-03-31T23:27:23.630Z,13.70
2023-03-31T23:29:51.353Z,11.95
2023-03-31T23:32:18.554Z,12.90
2023-03-31T23:34:45.883Z,13.10
2023-03-31T23:37:14.423Z,12.82
2023-03-31T23:39:42.198Z,13.95
2023-03-31T23:42:10.852Z,11.23
2023-03-31T23:44:38.006Z,12.63
2023-03-31T23:47:06.445Z,10.80
2023-03-31T23:49:33.890Z,9.57
2023-03-31T23:52:01.494Z,13.48
2023-03-31T23:54:29.189Z,13.57
2023-03-31T23:56:56.682Z,11.35
2023-03-31T23:59:24.398Z,13.57
